createdAt,value
2019-02-24T00:01:07.131Z,101767.02
2019-02-24T00:06:25.751Z,101767.84
2019-02-24T00:11:46.030Z,101760.91
2019-02-24T00:17:04.696Z,101764.39
2019-02-24T00:22:23.306Z,101772.18
2019-02-24T00:27:41.848Z,101771.70
2019-02-24T00:33:00.325Z,101787.87
2019-02-24T00:38:20.688Z,101781.16
2019-02-24T00:43:39.208Z,101784.75
2019-02-24T00:48:57.828Z,101785.37
2019-02-24T00:54:16.367Z,101780.70
2019-02-24T00:59:34.917Z,101773.88
2019-02-24T01:04:53.548Z,101779.15
2019-02-24T01:10:12.186Z,101772.81
2019-02-24T01:15:30.817Z,101769.46
2019-02-24T01:20:49.491Z,101756.19
2019-02-24T01:26:08.107Z,101759.78
2019-02-24T01:31:26.698Z,101761.98
2019-02-24T01:42:14.532Z,101767.89
2019-02-24T01:47:33.095Z,101766.69
2019-02-24T01:52:51.864Z,101755.70
2019-02-24T01:58:10.508Z,101743.69
2019-02-24T02:03:29.170Z,101745.77
2019-02-24T02:08:47.717Z,101739.45
2019-02-24T02:14:06.332Z,101738.96
2019-02-24T02:19:25.166Z,101741.36
2019-02-24T02:24:43.764Z,101736.34
2019-02-24T02:30:02.421Z,101736.20
2019-02-24T02:35:20.972Z,101734.43
2019-02-24T02:40:39.708Z,101728.20
2019-02-24T02:45:58.250Z,101724.39
2019-02-24T02:51:16.751Z,101716.00
2019-02-24T02:56:35.376Z,101716.61
2019-02-24T03:01:53.925Z,101719.25
2019-02-24T03:07:14.206Z,101727.98
2019-02-24T03:12:32.768Z,101725.95
2019-02-24T03:17:51.378Z,101728.31
2019-02-24T03:23:10.001Z,101730.05
2019-02-24T03:28:28.548Z,101732.58
2019-02-24T03:33:47.098Z,101739.34
2019-02-24T03:39:06.413Z,101744.70
2019-02-24T03:44:25.032Z,101743.61
2019-02-24T03:49:43.570Z,101742.72
2019-02-24T03:55:02.100Z,101743.22
2019-02-24T04:00:20.628Z,101735.73
2019-02-24T04:05:39.179Z,101739.71
2019-02-24T04:10:57.798Z,101748.17
2019-02-24T04:16:16.277Z,101754.02
2019-02-24T04:21:34.837Z,101749.16
2019-02-24T04:26:53.409Z,101758.05
2019-02-24T04:32:11.974Z,101756.59
2019-02-24T04:37:30.541Z,101757.14
2019-02-24T04:42:49.209Z,101763.77
2019-02-24T04:48:07.720Z,101762.19
2019-02-24T04:53:26.243Z,101766.37
2019-02-24T04:58:44.903Z,101779.45
2019-02-24T05:04:03.530Z,101779.45
2019-02-24T05:09:22.348Z,101768.59
2019-02-24T05:14:40.973Z,101769.06
2019-02-24T05:19:59.556Z,101766.63
2019-02-24T05:25:18.175Z,101764.40
2019-02-24T05:30:36.824Z,101761.69
2019-02-24T05:35:55.463Z,101755.99
2019-02-24T05:41:14.010Z,101757.09
2019-02-24T05:46:32.548Z,101768.87
2019-02-24T05:51:51.168Z,101779.00
2019-02-24T05:57:09.776Z,101776.69
2019-02-24T06:02:28.347Z,101768.84
2019-02-24T06:07:46.949Z,101767.10
2019-02-24T06:13:05.506Z,101752.63
2019-02-24T06:18:24.439Z,101752.72
2019-02-24T06:23:42.993Z,101757.03
2019-02-24T06:29:01.551Z,101760.60
2019-02-24T06:34:20.109Z,101757.23
2019-02-24T06:39:38.745Z,101747.61
2019-02-24T06:44:57.361Z,101753.41
2019-02-24T06:50:16.159Z,101760.69
2019-02-24T06:55:34.980Z,101745.57
2019-02-24T07:00:53.646Z,101744.22
2019-02-24T07:06:12.117Z,101753.80
2019-02-24T07:11:30.865Z,101762.81
2019-02-24T07:16:49.409Z,101762.81
2019-02-24T07:22:08.024Z,101771.91
2019-02-24T07:27:26.583Z,101772.50
2019-02-24T07:32:45.157Z,101763.50
2019-02-24T07:38:03.920Z,101767.21
2019-02-24T07:43:22.385Z,101753.65
2019-02-24T07:48:40.994Z,101765.64
2019-02-24T07:54:01.615Z,101760.29
2019-02-24T07:59:19.865Z,101754.97
2019-02-24T08:04:38.403Z,101762.25
2019-02-24T08:09:56.941Z,101754.30
2019-02-24T08:15:15.556Z,101790.48
2019-02-24T08:20:34.108Z,101790.48
2019-02-24T08:25:52.748Z,101802.72
2019-02-24T08:31:11.320Z,101819.25
2019-02-24T08:36:29.918Z,101823.44
2019-02-24T08:41:48.533Z,101845.62
2019-02-24T08:47:07.294Z,101853.09
2019-02-24T08:52:26.119Z,101866.11
2019-02-24T08:57:44.751Z,101867.78
2019-02-24T09:03:03.394Z,101872.62
2019-02-24T09:08:22.055Z,101888.00
2019-02-24T09:13:40.595Z,101898.83
2019-02-24T09:18:59.262Z,101900.30
2019-02-24T09:24:18.079Z,101902.31
2019-02-24T09:29:36.696Z,101900.48
2019-02-24T09:34:55.249Z,101910.08
2019-02-24T09:40:13.885Z,101906.45
2019-02-24T09:45:32.418Z,101894.67
2019-02-24T09:50:54.780Z,101889.48
2019-02-24T09:56:13.401Z,101883.00
2019-02-24T10:01:31.968Z,101883.38
2019-02-24T10:06:50.660Z,101892.08
2019-02-24T10:12:09.491Z,101894.94
2019-02-24T10:17:28.042Z,101904.37
2019-02-24T10:22:46.607Z,101902.77
2019-02-24T10:28:05.337Z,101911.28
2019-02-24T10:33:23.819Z,101908.18
2019-02-24T10:38:42.418Z,101905.95
2019-02-24T10:44:01.100Z,101905.95
2019-02-24T10:49:19.614Z,101910.02
2019-02-24T10:54:38.225Z,101902.66
2019-02-24T10:59:56.739Z,101900.39
2019-02-24T11:05:16.170Z,101888.05
2019-02-24T11:10:34.765Z,101884.63
2019-02-24T11:15:53.307Z,101884.69
2019-02-24T11:21:11.969Z,101877.27
2019-02-24T11:26:30.792Z,101873.67
2019-02-24T11:31:49.357Z,101875.73
2019-02-24T11:37:08.232Z,101881.35
2019-02-24T11:42:26.914Z,101887.22
2019-02-24T11:47:47.139Z,101892.46
2019-02-24T11:53:05.688Z,101876.93
2019-02-24T11:58:24.238Z,101882.55
2019-02-24T12:03:42.922Z,101894.36
2019-02-24T12:09:05.195Z,101875.13
2019-02-24T12:14:30.614Z,101874.45
2019-02-24T12:19:49.172Z,101872.81
2019-02-24T12:25:10.033Z,101870.59
2019-02-24T12:30:31.473Z,101873.72
2019-02-24T12:35:53.461Z,101877.19
2019-02-24T12:41:11.999Z,101870.66
2019-02-24T12:46:30.616Z,101859.75
2019-02-24T12:51:49.248Z,101855.54
2019-02-24T12:57:07.782Z,101860.30
2019-02-24T13:02:26.408Z,101853.04
2019-02-24T13:07:44.961Z,101845.31
2019-02-24T13:13:03.614Z,101838.21
2019-02-24T13:18:22.224Z,101839.34
2019-02-24T13:23:41.971Z,101836.99
2019-02-24T13:29:00.585Z,101831.73
2019-02-24T13:34:19.121Z,101825.84
2019-02-24T13:39:37.845Z,101823.14
2019-02-24T13:44:56.346Z,101814.75
2019-02-24T13:50:16.166Z,101811.99
2019-02-24T13:55:34.799Z,101811.16
2019-02-24T14:00:54.797Z,101822.67
2019-02-24T14:06:13.426Z,101809.42
2019-02-24T14:11:32.119Z,101814.84
2019-02-24T14:16:50.790Z,101814.90
2019-02-24T14:22:09.834Z,101799.58
2019-02-24T14:27:28.983Z,101794.03
2019-02-24T14:32:47.772Z,101784.95
2019-02-24T14:38:06.385Z,101787.91
2019-02-24T14:43:25.067Z,101790.02
2019-02-24T14:48:44.848Z,101794.52
2019-02-24T14:54:03.861Z,101801.08
2019-02-24T14:59:22.484Z,101805.20
2019-02-24T15:04:41.155Z,101806.11
2019-02-24T15:09:59.793Z,101812.48
2019-02-24T15:15:26.420Z,101813.41
2019-02-24T15:20:43.641Z,101813.59
2019-02-24T15:26:02.188Z,101808.62
2019-02-24T15:31:20.649Z,101814.75
2019-02-24T15:36:39.841Z,101813.08
2019-02-24T15:41:58.769Z,101816.37
2019-02-24T15:47:17.461Z,101813.05
2019-02-24T15:52:36.052Z,101813.88
2019-02-24T15:57:57.202Z,101822.55
2019-02-24T16:03:15.737Z,101822.63
2019-02-24T16:08:34.366Z,101814.88
2019-02-24T16:13:53.776Z,101818.75
2019-02-24T16:19:12.391Z,101810.70
2019-02-24T16:24:30.943Z,101812.91
2019-02-24T16:29:49.805Z,101807.09
2019-02-24T16:35:14.190Z,101810.69
2019-02-24T16:40:43.697Z,101811.00
2019-02-24T16:46:01.326Z,101804.47
2019-02-24T16:51:21.747Z,101816.05
2019-02-24T16:56:41.335Z,101809.89
2019-02-24T17:01:59.956Z,101814.72
2019-02-24T17:07:29.539Z,101825.20
2019-02-24T17:13:01.847Z,101832.01
2019-02-24T17:18:20.952Z,101833.87
2019-02-24T17:23:39.508Z,101840.22
2019-02-24T17:28:58.284Z,101845.26
2019-02-24T17:34:16.793Z,101835.78
2019-02-24T17:39:35.335Z,101833.50
2019-02-24T17:44:54.022Z,101835.81
2019-02-24T17:50:14.345Z,101844.23
2019-02-24T17:55:34.552Z,101857.97
2019-02-24T18:00:54.800Z,101841.86
2019-02-24T18:06:13.340Z,101855.16
2019-02-24T18:11:32.027Z,101856.45
2019-02-24T18:16:50.564Z,101856.91
2019-02-24T18:22:09.384Z,101850.33
2019-02-24T18:27:27.929Z,101845.62
2019-02-24T18:32:46.544Z,101844.56
2019-02-24T18:38:05.196Z,101843.02
2019-02-24T18:43:23.792Z,101833.21
2019-02-24T18:48:42.477Z,101831.73
2019-02-24T18:54:01.124Z,101820.56
2019-02-24T18:59:19.686Z,101819.50
2019-02-24T19:04:38.237Z,101809.78
2019-02-24T19:09:58.343Z,101805.18
2019-02-24T19:15:21.982Z,101805.46
2019-02-24T19:20:40.923Z,101812.67
2019-02-24T19:25:59.568Z,101817.56
2019-02-24T19:31:18.177Z,101820.25
2019-02-24T19:36:36.723Z,101826.41
2019-02-24T19:41:56.279Z,101838.51
2019-02-24T19:47:14.891Z,101841.34
2019-02-24T19:52:33.615Z,101839.71
2019-02-24T19:57:52.513Z,101847.52
2019-02-24T20:03:11.148Z,101847.58
2019-02-24T20:08:36.768Z,101849.06
2019-02-24T20:13:57.857Z,101852.73
2019-02-24T20:19:29.327Z,101850.32
2019-02-24T20:25:09.345Z,101853.11
2019-02-24T20:30:30.536Z,101860.05
2019-02-24T20:35:49.166Z,101864.30
2019-02-24T20:41:07.715Z,101873.98
2019-02-24T20:46:26.251Z,101867.41
2019-02-24T20:51:44.869Z,101867.06
2019-02-24T20:57:03.494Z,101858.31
2019-02-24T21:02:22.056Z,101863.19
2019-02-24T21:07:41.705Z,101864.16
2019-02-24T21:13:00.338Z,101864.55
2019-02-24T21:18:18.889Z,101864.55
2019-02-24T21:23:39.797Z,101857.69
2019-02-24T21:29:02.572Z,101851.12
2019-02-24T21:34:21.727Z,101851.16
2019-02-24T21:39:41.503Z,101847.58
2019-02-24T21:45:01.798Z,101851.95
2019-02-24T21:50:20.434Z,101848.75
2019-02-24T21:55:38.905Z,101852.45
2019-02-24T22:00:57.722Z,101852.89
2019-02-24T22:06:16.844Z,101846.23
2019-02-24T22:11:35.465Z,101855.00
2019-02-24T22:16:54.004Z,101853.88
2019-02-24T22:22:14.210Z,101844.16
2019-02-24T22:27:32.826Z,101843.17
2019-02-24T22:32:51.425Z,101848.50
2019-02-24T22:38:10.037Z,101860.13
2019-02-24T22:43:28.807Z,101857.06
2019-02-24T22:48:48.484Z,101862.00
2019-02-24T22:54:07.117Z,101871.72
2019-02-24T22:59:25.733Z,101866.78
2019-02-24T23:04:44.383Z,101869.16
2019-02-24T23:10:04.052Z,101859.11
2019-02-24T23:15:22.774Z,101865.77
2019-02-24T23:20:41.315Z,101865.08
2019-02-24T23:25:59.939Z,101870.01
2019-02-24T23:31:18.564Z,101860.67
2019-02-24T23:36:37.164Z,101871.48
2019-02-24T23:41:56.035Z,101884.18
2019-02-24T23:47:16.415Z,101890.13
2019-02-24T23:52:35.443Z,101890.75
2019-02-24T23:57:53.986Z,101888.97
